createdAt,value
2022-08-27T00:02:05.647Z,78.50
2022-08-27T00:04:32.231Z,78.62
2022-08-27T00:06:58.976Z,78.88
2022-08-27T00:09:27.011Z,78.69
2022-08-27T00:11:54.119Z,78.80
2022-08-27T00:14:20.652Z,79.07
2022-08-27T00:16:47.168Z,79.12
2022-08-27T00:19:13.640Z,79.36
2022-08-27T00:21:40.193Z,79.29
2022-08-27T00:24:06.753Z,79.38
2022-08-27T00:26:33.842Z,79.76
2022-08-27T00:29:00.985Z,79.56
2022-08-27T00:31:27.839Z,79.63
2022-08-27T00:33:55.586Z,79.70
2022-08-27T00:36:22.072Z,79.76
2022-08-27T00:38:48.611Z,79.91
2022-08-27T00:41:20.557Z,79.70
2022-08-27T00:43:57.328Z,79.93
2022-08-27T00:46:33.366Z,80.19
2022-08-27T00:49:08.861Z,80.06
2022-08-27T00:51:37.043Z,80.08
2022-08-27T00:54:05.548Z,80.40
2022-08-27T00:56:38.940Z,80.67
2022-08-27T00:59:05.673Z,80.44
2022-08-27T01:01:35.771Z,80.61
2022-08-27T01:04:05.353Z,80.59
2022-08-27T01:06:37.099Z,81.12
2022-08-27T01:09:12.209Z,80.81
2022-08-27T01:11:38.991Z,81.15
2022-08-27T01:14:06.342Z,81.29
2022-08-27T01:16:37.250Z,81.43
2022-08-27T01:19:07.765Z,81.53
2022-08-27T01:21:43.811Z,81.62
2022-08-27T01:24:30.812Z,81.97
2022-08-27T01:26:59.347Z,81.72
2022-08-27T01:29:26.106Z,81.65
2022-08-27T01:31:52.602Z,81.96
2022-08-27T01:34:19.007Z,81.89
2022-08-27T01:36:45.417Z,81.70
2022-08-27T01:39:11.823Z,81.94
2022-08-27T01:41:40.479Z,82.07
2022-08-27T01:44:06.955Z,81.85
2022-08-27T01:46:33.448Z,82.60
2022-08-27T01:49:00.088Z,82.80
2022-08-27T01:51:26.495Z,82.66
2022-08-27T01:53:52.951Z,83.09
2022-08-27T01:56:19.550Z,83.20
2022-08-27T01:58:45.986Z,83.24
2022-08-27T02:01:15.760Z,83.24
2022-08-27T02:03:42.397Z,83.41
2022-08-27T02:06:11.455Z,83.63
2022-08-27T02:08:39.088Z,83.68
2022-08-27T02:11:05.880Z,83.84
2022-08-27T02:13:32.453Z,83.92
2022-08-27T02:15:58.937Z,83.67
2022-08-27T02:18:25.399Z,84.08
2022-08-27T02:20:51.848Z,83.77
2022-08-27T02:23:18.436Z,83.52
2022-08-27T02:25:45.590Z,83.71
2022-08-27T02:28:12.191Z,83.67
2022-08-27T02:30:38.907Z,83.83
2022-08-27T02:33:05.999Z,83.75
2022-08-27T02:35:34.831Z,84.15
2022-08-27T02:38:01.681Z,84.51
2022-08-27T02:40:28.581Z,84.82
2022-08-27T02:42:55.229Z,85.47
2022-08-27T02:45:21.660Z,85.66
2022-08-27T02:47:48.152Z,85.58
2022-08-27T02:50:15.333Z,85.97
2022-08-27T02:52:42.038Z,85.57
2022-08-27T02:55:08.912Z,85.56
2022-08-27T02:57:36.482Z,85.49
2022-08-27T03:00:05.591Z,85.43
2022-08-27T03:02:32.189Z,85.02
2022-08-27T03:04:58.745Z,85.15
2022-08-27T03:07:25.160Z,85.49
2022-08-27T03:09:52.241Z,85.67
2022-08-27T03:12:18.903Z,86.15
2022-08-27T03:14:45.336Z,86.28
2022-08-27T03:17:12.270Z,87.01
2022-08-27T03:19:38.688Z,87.08
2022-08-27T03:22:05.083Z,87.27
2022-08-27T03:24:31.494Z,87.75
2022-08-27T03:26:58.147Z,88.12
2022-08-27T03:29:24.580Z,88.23
2022-08-27T03:31:51.039Z,88.31
2022-08-27T03:34:19.985Z,88.85
2022-08-27T03:36:46.837Z,88.63
2022-08-27T03:39:13.583Z,88.81
2022-08-27T03:41:54.153Z,89.43
2022-08-27T03:44:23.964Z,89.26
2022-08-27T03:46:51.778Z,89.30
2022-08-27T03:49:21.340Z,89.43
2022-08-27T03:51:49.069Z,89.38
2022-08-27T03:54:15.604Z,88.91
2022-08-27T03:56:42.026Z,88.78
2022-08-27T03:59:08.469Z,88.65
2022-08-27T04:01:35.013Z,87.96
2022-08-27T04:04:01.709Z,87.72
2022-08-27T04:06:28.113Z,87.54
2022-08-27T04:08:54.699Z,87.56
2022-08-27T04:11:21.300Z,87.16
2022-08-27T04:13:47.673Z,87.68
2022-08-27T04:16:14.307Z,87.66
2022-08-27T04:18:40.729Z,87.86
2022-08-27T04:21:09.021Z,87.82
2022-08-27T04:23:35.450Z,87.91
2022-08-27T04:26:05.680Z,87.86
2022-08-27T04:28:36.530Z,87.71
2022-08-27T04:31:05.115Z,87.68
2022-08-27T04:33:31.576Z,87.50
2022-08-27T04:36:06.475Z,87.34
2022-08-27T04:38:33.868Z,87.25
2022-08-27T04:41:09.558Z,87.12
2022-08-27T04:43:36.007Z,86.76
2022-08-27T04:46:02.523Z,86.75
2022-08-27T04:48:28.986Z,86.63
2022-08-27T04:50:55.653Z,86.70
2022-08-27T04:53:22.312Z,86.58
2022-08-27T04:55:52.576Z,86.52
2022-08-27T04:58:20.300Z,86.87
2022-08-27T05:00:50.289Z,86.77
2022-08-27T05:03:18.210Z,86.69
2022-08-27T05:05:44.725Z,86.63
2022-08-27T05:08:11.875Z,86.72
2022-08-27T05:10:48.188Z,86.63
2022-08-27T05:13:15.819Z,86.82
2022-08-27T05:15:42.258Z,86.56
2022-08-27T05:18:08.805Z,87.12
2022-08-27T05:20:42.742Z,87.85
2022-08-27T05:23:09.332Z,88.21
2022-08-27T05:25:44.225Z,88.81
2022-08-27T05:28:10.797Z,88.52
2022-08-27T05:30:40.530Z,87.98
2022-08-27T05:33:07.433Z,87.36
2022-08-27T05:35:40.937Z,86.97
2022-08-27T05:38:07.468Z,85.64
2022-08-27T05:40:34.362Z,83.06
2022-08-27T05:43:00.907Z,80.07
2022-08-27T05:45:27.484Z,76.90
2022-08-27T05:47:53.859Z,73.96
2022-08-27T05:50:23.560Z,70.84
2022-08-27T05:52:50.199Z,68.34
2022-08-27T05:55:16.731Z,66.33
2022-08-27T05:57:43.207Z,63.87
2022-08-27T06:00:14.698Z,61.35
2022-08-27T06:02:41.214Z,57.41
2022-08-27T06:05:07.951Z,58.09
2022-08-27T06:07:34.410Z,53.73
2022-08-27T06:10:00.890Z,54.96
2022-08-27T06:12:28.343Z,55.35
2022-08-27T06:14:54.920Z,56.07
2022-08-27T06:17:21.649Z,56.71
2022-08-27T06:19:48.120Z,57.64
2022-08-27T06:22:14.536Z,58.51
2022-08-27T06:24:42.284Z,59.67
2022-08-27T06:27:12.284Z,60.62
2022-08-27T06:29:39.255Z,61.05
2022-08-27T06:32:05.883Z,60.22
2022-08-27T06:34:32.915Z,59.64
2022-08-27T06:37:00.063Z,58.24
2022-08-27T06:39:26.475Z,58.19
2022-08-27T06:41:52.979Z,56.90
2022-08-27T06:44:19.731Z,50.74
2022-08-27T06:46:46.210Z,53.18
2022-08-27T06:49:13.454Z,50.54
2022-08-27T06:51:44.158Z,49.04
2022-08-27T06:54:11.991Z,47.12
2022-08-27T06:56:39.576Z,41.69
2022-08-27T06:59:11.804Z,41.89
2022-08-27T07:01:41.143Z,42.43
2022-08-27T07:04:11.606Z,43.66
2022-08-27T07:06:39.522Z,42.46
2022-08-27T07:09:07.204Z,38.56
2022-08-27T07:11:33.605Z,38.01
2022-08-27T07:14:00.719Z,38.48
2022-08-27T07:16:28.630Z,40.06
2022-08-27T07:18:59.000Z,38.45
2022-08-27T07:21:30.148Z,38.72
2022-08-27T07:23:56.839Z,37.30
2022-08-27T07:26:23.505Z,38.27
2022-08-27T07:28:50.589Z,38.42
2022-08-27T07:31:19.676Z,35.29
2022-08-27T07:33:53.099Z,34.98
2022-08-27T07:36:21.472Z,33.92
2022-08-27T07:38:59.201Z,34.53
2022-08-27T07:41:32.253Z,35.58
2022-08-27T07:43:59.894Z,36.39
2022-08-27T07:46:27.775Z,35.49
2022-08-27T07:48:54.936Z,33.79
2022-08-27T07:51:23.028Z,33.88
2022-08-27T07:53:49.669Z,32.71
2022-08-27T07:56:17.208Z,33.14
2022-08-27T07:58:44.166Z,32.95
2022-08-27T08:01:11.119Z,34.53
2022-08-27T08:03:37.677Z,33.49
2022-08-27T08:06:09.380Z,34.71
2022-08-27T08:08:37.181Z,34.81
2022-08-27T08:11:05.988Z,34.07
2022-08-27T08:13:32.402Z,35.42
2022-08-27T08:15:58.988Z,36.36
2022-08-27T08:18:26.543Z,36.20
2022-08-27T08:20:58.501Z,35.38
2022-08-27T08:23:25.578Z,35.40
2022-08-27T08:25:52.009Z,35.51
2022-08-27T08:28:18.391Z,35.19
2022-08-27T08:30:45.076Z,34.93
2022-08-27T08:33:12.133Z,35.67
2022-08-27T08:35:40.939Z,36.49
2022-08-27T08:38:07.702Z,36.04
2022-08-27T08:40:41.584Z,35.70
2022-08-27T08:43:19.588Z,36.81
2022-08-27T08:45:46.156Z,38.94
2022-08-27T08:48:17.738Z,38.08
2022-08-27T08:50:49.713Z,35.59
2022-08-27T08:53:57.789Z,36.11
2022-08-27T08:56:48.478Z,37.17
2022-08-27T08:59:34.126Z,36.48
2022-08-27T09:02:01.216Z,38.13
2022-08-27T09:04:29.388Z,39.89
2022-08-27T09:07:04.126Z,42.43
2022-08-27T09:09:37.165Z,43.26
2022-08-27T09:12:06.468Z,43.47
2022-08-27T09:14:46.484Z,44.46
2022-08-27T09:17:13.274Z,45.15
2022-08-27T09:19:39.903Z,46.04
2022-08-27T09:22:19.633Z,47.96
2022-08-27T09:24:55.531Z,45.46
2022-08-27T09:27:23.122Z,45.17
2022-08-27T09:29:53.559Z,44.90
2022-08-27T09:32:28.757Z,44.83
2022-08-27T09:35:00.994Z,44.62
2022-08-27T09:37:34.510Z,45.78
2022-08-27T09:40:18.478Z,45.18
2022-08-27T09:42:52.788Z,44.29
2022-08-27T09:45:22.764Z,42.48
2022-08-27T09:47:52.741Z,40.80
2022-08-27T09:50:22.655Z,41.22
2022-08-27T09:52:55.403Z,42.37
2022-08-27T09:55:39.338Z,43.31
2022-08-27T09:58:15.939Z,44.51
2022-08-27T10:00:42.534Z,45.11
2022-08-27T10:03:11.593Z,45.82
2022-08-27T10:05:49.453Z,46.20
2022-08-27T10:08:40.899Z,47.32
2022-08-27T10:11:14.533Z,45.46
2022-08-27T10:14:00.441Z,44.37
2022-08-27T10:16:41.634Z,42.79
2022-08-27T10:19:19.907Z,43.95
2022-08-27T10:22:00.148Z,45.12
2022-08-27T10:24:47.711Z,45.64
2022-08-27T10:27:23.140Z,44.92
2022-08-27T10:29:58.416Z,44.65
2022-08-27T10:32:43.646Z,45.52
2022-08-27T10:35:37.315Z,47.47
2022-08-27T10:38:21.478Z,47.14
2022-08-27T10:41:03.515Z,47.42
2022-08-27T10:43:38.826Z,48.25
2022-08-27T10:46:08.190Z,48.55
2022-08-27T10:48:40.290Z,47.46
2022-08-27T10:51:20.553Z,48.46
2022-08-27T10:54:02.202Z,47.08
2022-08-27T10:57:14.470Z,48.41
2022-08-27T10:59:59.590Z,48.12
2022-08-27T11:02:32.390Z,46.89
2022-08-27T11:05:15.372Z,48.32
2022-08-27T11:07:51.080Z,48.60
2022-08-27T11:10:28.974Z,49.76
2022-08-27T11:12:59.792Z,50.32
2022-08-27T11:15:32.943Z,51.12
2022-08-27T11:18:18.890Z,51.75
2022-08-27T11:20:52.202Z,51.81
2022-08-27T11:23:23.349Z,51.98
2022-08-27T11:25:52.523Z,52.10
2022-08-27T11:28:29.567Z,50.90
2022-08-27T11:31:05.571Z,51.55
2022-08-27T11:33:46.340Z,51.97
2022-08-27T11:36:37.177Z,50.89
2022-08-27T11:39:31.735Z,51.69
2022-08-27T11:42:36.300Z,51.30
2022-08-27T11:45:09.834Z,49.45
2022-08-27T11:47:38.740Z,49.33
2022-08-27T11:50:15.784Z,48.77
2022-08-27T11:52:55.715Z,48.92
2022-08-27T11:55:22.045Z,49.55
2022-08-27T11:57:50.189Z,49.82
2022-08-27T12:00:22.648Z,48.38
2022-08-27T12:03:05.781Z,47.82
2022-08-27T12:05:47.296Z,47.88
2022-08-27T12:08:22.847Z,48.70
2022-08-27T12:11:11.141Z,49.82
2022-08-27T12:14:05.065Z,49.48
2022-08-27T12:16:49.446Z,50.12
2022-08-27T12:19:40.982Z,50.20
2022-08-27T12:22:20.355Z,49.99
2022-08-27T12:24:55.708Z,48.79
2022-08-27T12:27:22.388Z,47.85
2022-08-27T12:29:53.311Z,48.43
2022-08-27T12:32:27.499Z,47.76
2022-08-27T12:35:17.134Z,47.77
2022-08-27T12:37:50.887Z,46.94
2022-08-27T12:40:25.914Z,48.47
2022-08-27T12:43:08.538Z,48.02
2022-08-27T12:45:45.367Z,47.62
2022-08-27T12:48:11.892Z,47.42
2022-08-27T12:50:38.681Z,48.59
2022-08-27T12:53:37.138Z,48.25
2022-08-27T12:56:26.735Z,48.80
2022-08-27T12:59:04.215Z,49.71
2022-08-27T13:01:54.392Z,48.84
2022-08-27T13:04:24.913Z,49.16
2022-08-27T13:06:51.717Z,48.41
2022-08-27T13:09:29.825Z,48.89
2022-08-27T13:11:57.536Z,48.72
2022-08-27T13:14:25.645Z,48.46
2022-08-27T13:16:54.987Z,48.87
2022-08-27T13:19:28.613Z,47.06
2022-08-27T13:21:55.468Z,47.76
2022-08-27T13:24:30.588Z,49.13
2022-08-27T13:26:57.297Z,47.96
2022-08-27T13:29:25.613Z,48.12
2022-08-27T13:31:52.956Z,48.56
2022-08-27T13:34:23.654Z,47.48
2022-08-27T13:36:58.708Z,48.49
2022-08-27T13:39:27.108Z,46.98
2022-08-27T13:41:54.503Z,47.50
2022-08-27T13:44:26.934Z,46.67
2022-08-27T13:47:03.345Z,46.77
2022-08-27T13:49:32.494Z,46.98
2022-08-27T13:52:27.271Z,47.44
2022-08-27T13:55:10.557Z,47.13
2022-08-27T13:57:41.475Z,47.55
2022-08-27T14:00:20.787Z,47.14
2022-08-27T14:02:55.401Z,47.31
2022-08-27T14:05:25.193Z,47.66
2022-08-27T14:08:13.130Z,46.55
2022-08-27T14:10:48.688Z,45.72
2022-08-27T14:13:18.132Z,45.05
2022-08-27T14:15:45.822Z,45.17
2022-08-27T14:18:48.103Z,45.27
2022-08-27T14:21:13.540Z,44.12
2022-08-27T14:23:39.909Z,43.49
2022-08-27T14:26:08.106Z,43.77
2022-08-27T14:28:34.534Z,43.75
2022-08-27T14:31:01.022Z,44.29
2022-08-27T14:33:27.472Z,44.97
2022-08-27T14:35:54.041Z,44.64
2022-08-27T14:38:23.323Z,44.44
2022-08-27T14:40:53.483Z,44.85
2022-08-27T14:43:21.723Z,45.10
2022-08-27T14:45:50.759Z,45.28
2022-08-27T14:48:28.626Z,45.32
2022-08-27T14:50:56.388Z,45.00
2022-08-27T14:53:22.780Z,44.95
2022-08-27T14:55:51.615Z,45.41
2022-08-27T14:58:19.213Z,44.80
2022-08-27T15:00:45.813Z,44.82
2022-08-27T15:03:12.983Z,45.37
2022-08-27T15:05:39.506Z,45.35
2022-08-27T15:08:06.680Z,44.23
2022-08-27T15:10:37.695Z,44.86
2022-08-27T15:13:04.084Z,44.91
2022-08-27T15:15:30.493Z,45.66
2022-08-27T15:17:56.943Z,45.85
2022-08-27T15:20:23.336Z,46.75
2022-08-27T15:22:51.746Z,46.78
2022-08-27T15:25:19.182Z,47.33
2022-08-27T15:27:45.559Z,47.39
2022-08-27T15:30:15.213Z,47.67
2022-08-27T15:32:45.632Z,47.70
2022-08-27T15:35:16.993Z,46.98
2022-08-27T15:37:44.060Z,46.54
2022-08-27T15:40:12.874Z,46.27
2022-08-27T15:42:39.349Z,46.48
2022-08-27T15:45:07.300Z,45.78
2022-08-27T15:47:33.954Z,45.83
2022-08-27T15:50:00.741Z,45.98
2022-08-27T15:52:28.512Z,46.68
2022-08-27T15:55:14.161Z,46.99
2022-08-27T15:57:40.485Z,47.54
2022-08-27T16:00:07.449Z,47.90
2022-08-27T16:02:33.901Z,47.77
2022-08-27T16:05:00.321Z,47.34
2022-08-27T16:07:26.699Z,47.16
2022-08-27T16:09:53.033Z,47.35
2022-08-27T16:12:27.114Z,47.67
2022-08-27T16:14:55.210Z,47.25
2022-08-27T16:17:22.268Z,47.69
2022-08-27T16:19:48.667Z,48.00
2022-08-27T16:22:15.307Z,47.84
2022-08-27T16:24:42.001Z,49.17
2022-08-27T16:27:08.347Z,49.03
2022-08-27T16:29:34.728Z,49.61
2022-08-27T16:32:01.515Z,50.27
2022-08-27T16:34:28.833Z,50.18
2022-08-27T16:36:55.592Z,50.71
2022-08-27T16:39:22.521Z,51.41
2022-08-27T16:41:49.023Z,51.49
2022-08-27T16:44:15.429Z,51.71
2022-08-27T16:46:41.897Z,52.73
2022-08-27T16:49:08.319Z,52.47
2022-08-27T16:51:35.427Z,52.58
2022-08-27T16:54:03.618Z,52.46
2022-08-27T16:56:31.869Z,52.66
2022-08-27T16:59:01.417Z,52.21
2022-08-27T17:01:27.842Z,52.78
2022-08-27T17:04:13.392Z,52.88
2022-08-27T17:06:44.692Z,53.37
2022-08-27T17:09:12.238Z,54.14
2022-08-27T17:11:41.733Z,54.42
2022-08-27T17:14:09.561Z,54.78
2022-08-27T17:16:37.001Z,55.22
2022-08-27T17:19:05.619Z,55.43
2022-08-27T17:21:33.768Z,55.79
2022-08-27T17:24:00.850Z,56.10
2022-08-27T17:26:28.011Z,56.14
2022-08-27T17:28:54.466Z,56.46
2022-08-27T17:31:24.251Z,56.57
2022-08-27T17:33:54.989Z,56.16
2022-08-27T17:36:22.696Z,56.02
2022-08-27T17:38:53.442Z,56.33
2022-08-27T17:41:52.682Z,56.41
2022-08-27T17:44:23.706Z,56.42
2022-08-27T17:46:52.241Z,56.64
2022-08-27T17:49:18.664Z,56.17
2022-08-27T17:51:46.201Z,56.67
2022-08-27T17:54:27.029Z,56.94
2022-08-27T17:56:53.430Z,57.39
2022-08-27T17:59:19.776Z,57.58
2022-08-27T18:01:46.468Z,57.97
2022-08-27T18:04:13.476Z,58.00
2022-08-27T18:06:40.153Z,57.58
2022-08-27T18:09:06.683Z,57.77
2022-08-27T18:11:33.956Z,57.53
2022-08-27T18:14:04.750Z,57.51
2022-08-27T18:16:31.505Z,57.72
2022-08-27T18:18:57.881Z,58.11
2022-08-27T18:21:25.525Z,58.52
2022-08-27T18:23:53.530Z,58.82
2022-08-27T18:26:21.573Z,59.20
2022-08-27T18:28:48.875Z,59.83
2022-08-27T18:31:18.176Z,59.85
2022-08-27T18:33:44.600Z,60.32
2022-08-27T18:36:11.274Z,60.64
2022-08-27T18:38:37.745Z,61.31
2022-08-27T18:41:08.396Z,61.18
2022-08-27T18:43:35.072Z,61.60
2022-08-27T18:46:05.272Z,61.96
2022-08-27T18:48:32.727Z,62.54
2022-08-27T18:51:01.477Z,62.53
2022-08-27T18:53:30.704Z,63.33
2022-08-27T18:55:57.319Z,63.27
2022-08-27T18:58:24.203Z,63.87
2022-08-27T19:00:55.693Z,63.78
2022-08-27T19:03:27.398Z,63.93
2022-08-27T19:05:55.149Z,64.39
2022-08-27T19:08:23.679Z,64.47
2022-08-27T19:10:50.215Z,64.79
2022-08-27T19:13:16.657Z,64.82
2022-08-27T19:15:49.121Z,65.32
2022-08-27T19:18:15.583Z,65.48
2022-08-27T19:20:41.966Z,65.40
2022-08-27T19:23:08.364Z,66.31
2022-08-27T19:25:34.782Z,66.62
2022-08-27T19:28:01.388Z,66.70
2022-08-27T19:30:27.769Z,67.06
2022-08-27T19:32:55.027Z,67.38
2022-08-27T19:35:24.308Z,67.65
2022-08-27T19:37:53.121Z,67.64
2022-08-27T19:40:20.331Z,68.12
2022-08-27T19:42:46.749Z,67.80
2022-08-27T19:45:13.118Z,67.73
2022-08-27T19:47:39.468Z,68.30
2022-08-27T19:50:06.412Z,68.37
2022-08-27T19:52:32.794Z,67.87
2022-08-27T19:55:14.976Z,68.05
2022-08-27T19:57:42.868Z,68.60
2022-08-27T20:00:12.217Z,69.75
2022-08-27T20:02:38.678Z,70.10
2022-08-27T20:05:17.985Z,70.78
2022-08-27T20:07:46.518Z,70.29
2022-08-27T20:10:12.996Z,70.86
2022-08-27T20:12:42.644Z,70.94
2022-08-27T20:15:09.345Z,71.17
2022-08-27T20:17:35.732Z,71.54
2022-08-27T20:20:02.352Z,70.81
2022-08-27T20:22:28.740Z,72.08
2022-08-27T20:24:55.099Z,71.52
2022-08-27T20:27:21.760Z,70.98
2022-08-27T20:29:48.311Z,71.54
2022-08-27T20:32:14.902Z,71.94
2022-08-27T20:34:41.265Z,71.97
2022-08-27T20:37:08.078Z,72.86
2022-08-27T20:39:34.422Z,73.28
2022-08-27T20:42:00.781Z,73.83
2022-08-27T20:44:27.177Z,73.79
2022-08-27T20:46:58.006Z,74.30
2022-08-27T20:49:24.440Z,74.22
2022-08-27T20:51:51.131Z,74.20
2022-08-27T20:54:30.077Z,74.46
2022-08-27T20:56:56.437Z,74.61
2022-08-27T20:59:22.796Z,74.74
2022-08-27T21:01:49.183Z,75.19
2022-08-27T21:04:15.601Z,75.29
2022-08-27T21:06:41.944Z,75.10
2022-08-27T21:09:08.321Z,74.63
2022-08-27T21:11:34.691Z,75.07
2022-08-27T21:14:01.075Z,74.93
2022-08-27T21:16:27.490Z,75.04
2022-08-27T21:18:53.905Z,74.94
2022-08-27T21:21:20.413Z,75.45
2022-08-27T21:23:46.779Z,75.63
2022-08-27T21:26:13.517Z,75.31
2022-08-27T21:28:42.510Z,75.04
2022-08-27T21:31:09.740Z,74.91
2022-08-27T21:33:39.416Z,74.81
2022-08-27T21:36:09.998Z,74.92
2022-08-27T21:38:38.257Z,75.08
2022-08-27T21:41:04.657Z,75.12
2022-08-27T21:43:30.983Z,75.30
2022-08-27T21:45:57.784Z,75.13
2022-08-27T21:48:24.364Z,75.30
2022-08-27T21:50:53.489Z,75.06
2022-08-27T21:53:20.608Z,74.96
2022-08-27T21:55:47.064Z,75.31
2022-08-27T21:58:14.461Z,75.30
2022-08-27T22:00:48.748Z,75.68
2022-08-27T22:03:19.971Z,75.58
2022-08-27T22:05:47.086Z,75.80
2022-08-27T22:08:15.400Z,75.52
2022-08-27T22:10:44.190Z,76.06
2022-08-27T22:13:11.284Z,75.65
2022-08-27T22:15:38.030Z,75.86
2022-08-27T22:18:05.531Z,75.75
2022-08-27T22:20:32.685Z,76.09
2022-08-27T22:22:59.975Z,76.30
2022-08-27T22:25:27.921Z,76.74
2022-08-27T22:27:55.642Z,77.87
2022-08-27T22:30:21.995Z,77.33
2022-08-27T22:32:48.405Z,77.99
2022-08-27T22:35:16.567Z,78.07
2022-08-27T22:37:44.468Z,78.75
2022-08-27T22:40:19.920Z,78.27
2022-08-27T22:42:47.476Z,78.23
2022-08-27T22:45:14.115Z,78.35
2022-08-27T22:47:40.875Z,78.62
2022-08-27T22:50:08.234Z,78.40
2022-08-27T22:52:36.736Z,78.95
2022-08-27T22:55:03.996Z,78.06
2022-08-27T22:57:30.404Z,78.80
2022-08-27T22:59:58.365Z,78.65
2022-08-27T23:02:24.761Z,78.69
2022-08-27T23:04:55.538Z,78.53
2022-08-27T23:07:23.696Z,78.89
2022-08-27T23:09:50.481Z,78.56
2022-08-27T23:12:16.854Z,78.80
2022-08-27T23:14:43.211Z,78.54
2022-08-27T23:17:09.567Z,78.49
2022-08-27T23:19:35.963Z,78.71
2022-08-27T23:22:02.361Z,78.79
2022-08-27T23:24:33.723Z,79.18
2022-08-27T23:27:00.044Z,78.88
2022-08-27T23:29:26.561Z,79.17
2022-08-27T23:31:53.107Z,79.14
2022-08-27T23:34:20.550Z,79.23
2022-08-27T23:36:47.596Z,79.53
2022-08-27T23:39:14.592Z,79.35
2022-08-27T23:41:42.051Z,79.63
2022-08-27T23:44:08.449Z,79.47
2022-08-27T23:46:34.783Z,79.74
2022-08-27T23:49:01.136Z,80.31
2022-08-27T23:51:27.678Z,79.95
2022-08-27T23:53:54.005Z,80.24
2022-08-27T23:56:20.355Z,79.88
2022-08-27T23:58:46.720Z,79.84
